Strona główna
METAR-TAF:

METAR-TAF

Lotnisko :

Port lotniczy Norwich

Norwich, Anglia

Szerokość geograficzna: 52-38N, Długość geograficzna: 001-18E, wysokość: 14 m

Aktualna obserwacja pogody

Raport powstał 31 minut temu, godzina 08:20 UTC
Wiatr 7 kt od południowy wschód, zmienny między wschód i południowo-południowy zachód
Temperatura 16°C
Wilgotność 59%
Ciśnienie 1036 hPa
Widzialność 10 km lub więcej
Mało chmury na wysokości 2000 ft

METAR: EGSH 280820Z 13007KT 100V200 9999 FEW020 16/08 Q1036

czas: 09:51 (08:51 UTC)

Prognoza

Raport powstał 54 minut temu, godzina 07:57 UTC
Prognoza ważna od 28 godzina 09 UTC do 28 godzina 18 UTC
Wiatr 8 kt od wschodnio-południowy wschód
Widzialność 10 km lub więcej
Mało chmury na wysokości 4500 ft

TAF: EGSH 280757Z 2809/2818 11008KT 9999 FEW045

Obserwacja i prognoza pogody dla ponad 4000 lotnisk (raport METAR i TAF).

Dostępne stacje oznaczono żółtymi i czerwonymi punktami na mapie.

Najedź kursorem aby zobaczyć nazwę stacji.

Kliknij aby zobaczyć obserwacje i prognozy pogody.

Aby zmienić mapę: kliknij na zielony przycisk z czarnym krzyżykiem, aby powiększyć; na zielony przycisk z myślnikiem, aby pomniejszyć; na zielone strzałki, aby przejść do map sąsiednich.


METAR-TAF: